createdAt,value
2018-07-22T00:01:27.414Z,21.28
2018-07-22T00:04:32.174Z,21.13
2018-07-22T00:07:37.299Z,21.23
2018-07-22T00:10:45.367Z,21.12
2018-07-22T00:13:50.902Z,21.21
2018-07-22T00:16:56.508Z,21.11
2018-07-22T00:20:02.072Z,21.04
2018-07-22T00:23:07.384Z,21.13
2018-07-22T00:26:11.055Z,20.96
2018-07-22T00:29:15.525Z,21.28
2018-07-22T00:32:20.332Z,21.02
2018-07-22T00:35:26.592Z,21.11
2018-07-22T00:38:31.130Z,21.17
2018-07-22T00:41:38.934Z,21.02
2018-07-22T00:44:43.200Z,20.90
2018-07-22T00:47:49.348Z,21.03
2018-07-22T00:50:54.846Z,20.98
2018-07-22T00:53:59.275Z,21.00
2018-07-22T00:57:03.765Z,20.93
2018-07-22T01:00:10.646Z,20.81
2018-07-22T01:03:14.816Z,20.68
2018-07-22T01:06:18.702Z,20.77
2018-07-22T01:09:23.573Z,20.64
2018-07-22T01:12:28.196Z,20.57
2018-07-22T01:15:34.750Z,20.71
2018-07-22T01:18:41.535Z,20.87
2018-07-22T01:21:45.563Z,20.84
2018-07-22T01:24:51.208Z,20.66
2018-07-22T01:27:56.038Z,20.69
2018-07-22T01:31:00.040Z,20.67
2018-07-22T01:34:03.954Z,20.76
2018-07-22T01:37:08.833Z,20.70
2018-07-22T01:40:12.606Z,20.85
2018-07-22T01:43:17.207Z,20.88
2018-07-22T01:46:21.665Z,20.72
2018-07-22T01:49:27.307Z,20.62
2018-07-22T01:52:31.012Z,20.79
2018-07-22T01:55:34.847Z,20.83
2018-07-22T01:58:38.734Z,20.74
2018-07-22T02:01:42.564Z,20.65
2018-07-22T02:04:46.358Z,20.71
2018-07-22T02:07:50.242Z,20.58
2018-07-22T02:10:54.065Z,20.52
2018-07-22T02:14:01.254Z,20.53
2018-07-22T02:17:04.983Z,20.46
2018-07-22T02:20:08.860Z,20.45
2018-07-22T02:23:12.684Z,20.28
2018-07-22T02:26:17.522Z,20.21
2018-07-22T02:29:21.331Z,20.42
2018-07-22T02:32:25.723Z,20.34
2018-07-22T02:35:29.567Z,20.26
2018-07-22T02:38:33.379Z,20.24
2018-07-22T02:41:37.304Z,20.38
2018-07-22T02:44:43.067Z,20.21
2018-07-22T02:47:47.572Z,20.24
2018-07-22T02:50:51.385Z,20.28
2018-07-22T02:53:55.082Z,20.08
2018-07-22T02:56:59.922Z,20.19
2018-07-22T03:00:06.592Z,20.26
2018-07-22T03:03:25.030Z,20.18
2018-07-22T03:06:29.375Z,20.25
2018-07-22T03:09:35.643Z,20.21
2018-07-22T03:12:39.446Z,20.13
2018-07-22T03:15:44.359Z,20.08
2018-07-22T03:18:48.614Z,20.00
2018-07-22T03:21:54.515Z,19.95
2018-07-22T03:25:01.689Z,19.97
2018-07-22T03:28:06.652Z,19.76
2018-07-22T03:31:12.355Z,19.75
2018-07-22T03:34:16.173Z,20.06
2018-07-22T03:37:19.945Z,20.02
2018-07-22T03:40:23.686Z,20.00
2018-07-22T03:43:27.425Z,19.91
2018-07-22T03:46:31.818Z,19.98
2018-07-22T03:49:35.747Z,19.85
2018-07-22T03:52:40.808Z,19.97
2018-07-22T03:55:45.555Z,19.99
2018-07-22T03:58:49.445Z,20.02
2018-07-22T04:01:53.155Z,20.01
2018-07-22T04:04:57.324Z,19.76
2018-07-22T04:08:01.102Z,19.87
2018-07-22T04:11:06.789Z,19.89
2018-07-22T04:14:10.627Z,19.93
2018-07-22T04:17:14.331Z,19.89
2018-07-22T04:20:18.874Z,19.98
2018-07-22T04:23:23.604Z,19.86
2018-07-22T04:26:27.968Z,19.86
2018-07-22T04:29:33.793Z,20.03
2018-07-22T04:32:38.117Z,20.24
2018-07-22T04:35:43.834Z,19.98
2018-07-22T04:38:48.486Z,19.82
2018-07-22T04:41:52.740Z,19.80
2018-07-22T04:44:58.162Z,19.89
2018-07-22T04:48:02.592Z,19.97
2018-07-22T04:51:07.210Z,19.89
2018-07-22T04:54:10.985Z,20.25
2018-07-22T04:57:14.696Z,20.35
2018-07-22T05:00:19.864Z,20.45
2018-07-22T05:03:26.815Z,20.29
2018-07-22T05:06:32.836Z,20.34
2018-07-22T05:09:37.479Z,20.57
2018-07-22T05:12:42.572Z,20.53
2018-07-22T05:15:46.936Z,20.58
2018-07-22T05:18:54.261Z,20.60
2018-07-22T05:21:57.759Z,20.59
2018-07-22T05:25:02.279Z,20.62
2018-07-22T05:28:05.866Z,20.48
2018-07-22T05:31:09.393Z,20.29
2018-07-22T05:34:16.285Z,20.48
2018-07-22T05:37:21.490Z,20.60
2018-07-22T05:40:25.023Z,20.71
2018-07-22T05:43:28.523Z,20.93
2018-07-22T05:46:32.160Z,21.06
2018-07-22T05:49:35.837Z,21.07
2018-07-22T05:53:12.864Z,21.14
2018-07-22T06:04:06.862Z,21.06
2018-07-22T06:13:28.777Z,21.34
2018-07-22T06:16:44.539Z,21.38
2018-07-22T06:20:02.762Z,21.42
2018-07-22T06:23:06.962Z,21.46
2018-07-22T06:26:12.881Z,21.58
2018-07-22T06:29:17.347Z,21.43
2018-07-22T06:32:20.974Z,21.57
2018-07-22T06:35:25.417Z,21.55
2018-07-22T06:38:28.928Z,21.54
2018-07-22T06:41:33.265Z,21.56
2018-07-22T06:44:43.012Z,21.63
2018-07-22T06:47:46.594Z,21.75
2018-07-22T06:50:51.039Z,21.81
2018-07-22T06:53:55.731Z,21.93
2018-07-22T06:56:59.707Z,21.99
2018-07-22T07:00:04.339Z,22.10
2018-07-22T07:03:08.747Z,22.33
2018-07-22T07:06:12.430Z,22.42
2018-07-22T07:09:16.547Z,22.60
2018-07-22T07:12:20.196Z,22.80
2018-07-22T07:15:23.788Z,22.83
2018-07-22T07:18:27.267Z,22.92
2018-07-22T07:21:31.670Z,22.95
2018-07-22T07:24:35.174Z,23.05
2018-07-22T07:27:38.674Z,23.13
2018-07-22T07:30:42.172Z,23.12
2018-07-22T07:33:45.781Z,23.20
2018-07-22T07:36:50.155Z,23.27
2018-07-22T07:39:53.880Z,23.27
2018-07-22T07:42:58.237Z,23.20
2018-07-22T07:46:11.708Z,23.26
2018-07-22T07:49:31.759Z,23.25
2018-07-22T07:52:39.501Z,23.28
2018-07-22T07:55:43.096Z,23.32
2018-07-22T07:58:46.873Z,23.36
2018-07-22T08:01:51.538Z,23.44
2018-07-22T08:04:58.855Z,23.48
2018-07-22T08:08:02.618Z,23.51
2018-07-22T08:11:06.411Z,23.85
2018-07-22T08:14:17.953Z,23.86
2018-07-22T08:17:21.448Z,23.84
2018-07-22T08:20:25.532Z,23.85
2018-07-22T08:23:29.714Z,23.90
2018-07-22T08:26:34.748Z,23.87
2018-07-22T08:29:39.478Z,23.86
2018-07-22T08:32:43.114Z,24.02
2018-07-22T08:35:47.333Z,24.11
2018-07-22T08:38:51.219Z,24.19
2018-07-22T08:41:59.177Z,24.32
2018-07-22T08:45:03.162Z,24.43
2018-07-22T08:51:17.925Z,24.63
2018-07-22T08:54:22.270Z,24.78
2018-07-22T08:57:39.186Z,25.00
2018-07-22T09:00:43.813Z,25.21
2018-07-22T09:03:52.437Z,25.25
2018-07-22T09:06:56.147Z,25.22
2018-07-22T09:10:15.549Z,25.03
2018-07-22T09:13:27.370Z,25.02
2018-07-22T09:16:31.290Z,25.06
2018-07-22T09:19:54.365Z,25.13
2018-07-22T09:22:58.773Z,25.16
2018-07-22T09:26:02.735Z,25.19
2018-07-22T09:29:07.509Z,25.38
2018-07-22T09:32:12.608Z,25.47
2018-07-22T09:35:16.223Z,25.77
2018-07-22T09:38:22.105Z,25.92
2018-07-22T09:41:25.788Z,25.81
2018-07-22T09:44:29.509Z,26.01
2018-07-22T09:47:34.041Z,25.97
2018-07-22T09:50:39.150Z,26.36
2018-07-22T09:53:42.850Z,26.34
2018-07-22T09:56:47.206Z,26.48
2018-07-22T09:59:51.709Z,26.53
2018-07-22T10:02:55.284Z,26.58
2018-07-22T10:05:58.761Z,26.75
2018-07-22T10:13:02.138Z,26.87
2018-07-22T10:21:50.432Z,27.41
2018-07-22T10:25:49.636Z,27.31
2018-07-22T10:28:53.800Z,27.33
2018-07-22T10:31:57.250Z,27.44
2018-07-22T10:35:00.856Z,27.31
2018-07-22T10:38:04.359Z,27.58
2018-07-22T10:41:08.830Z,27.44
2018-07-22T10:44:12.388Z,27.54
2018-07-22T10:47:16.094Z,27.38
2018-07-22T10:50:22.565Z,27.44
2018-07-22T10:53:26.230Z,27.25
2018-07-22T10:56:29.745Z,27.35
2018-07-22T10:59:33.372Z,27.73
2018-07-22T11:02:38.124Z,27.46
2018-07-22T11:05:42.665Z,27.44
2018-07-22T11:08:49.199Z,27.73
2018-07-22T11:11:53.223Z,27.98
2018-07-22T11:14:56.877Z,28.38
2018-07-22T11:18:01.094Z,28.35
2018-07-22T11:21:06.081Z,28.63
2018-07-22T11:24:10.537Z,28.72
2018-07-22T11:27:16.816Z,29.03
2018-07-22T11:30:21.907Z,29.08
2018-07-22T11:33:25.670Z,29.33
2018-07-22T11:36:29.223Z,29.23
2018-07-22T11:39:32.798Z,29.57
2018-07-22T11:42:37.879Z,28.89
2018-07-22T11:45:41.438Z,29.19
2018-07-22T11:48:44.938Z,29.59
2018-07-22T11:51:49.277Z,29.25
2018-07-22T11:54:53.251Z,29.64
2018-07-22T11:57:57.394Z,29.90
2018-07-22T12:01:00.894Z,29.68
2018-07-22T12:04:05.468Z,29.65
2018-07-22T12:07:09.992Z,29.48
2018-07-22T12:10:14.189Z,29.49
2018-07-22T12:13:18.639Z,29.53
2018-07-22T12:16:25.213Z,29.39
2018-07-22T12:19:28.692Z,29.45
2018-07-22T12:22:34.684Z,29.47
2018-07-22T12:25:38.178Z,29.31
2018-07-22T12:28:41.753Z,29.03
2018-07-22T12:31:47.722Z,28.86
2018-07-22T12:34:51.328Z,29.07
2018-07-22T12:37:57.584Z,29.10
2018-07-22T12:41:01.176Z,28.88
2018-07-22T12:44:04.746Z,28.80
2018-07-22T12:47:10.067Z,28.56
2018-07-22T12:50:13.934Z,28.79
2018-07-22T12:53:17.716Z,28.89
2018-07-22T12:56:21.745Z,29.08
2018-07-22T12:59:25.815Z,29.06
2018-07-22T13:02:29.522Z,29.10
2018-07-22T13:05:33.024Z,29.33
2018-07-22T13:08:37.089Z,29.53
2018-07-22T13:11:41.389Z,29.40
2018-07-22T13:14:45.888Z,29.20
2018-07-22T13:17:50.365Z,29.22
2018-07-22T13:20:55.292Z,29.20
2018-07-22T13:24:00.352Z,29.17
2018-07-22T13:27:03.832Z,29.01
2018-07-22T13:30:08.134Z,29.15
2018-07-22T13:33:12.335Z,29.01
2018-07-22T13:36:15.883Z,29.08
2018-07-22T13:39:19.386Z,28.98
2018-07-22T13:42:22.956Z,29.04
2018-07-22T13:45:28.162Z,28.97
2018-07-22T13:48:32.621Z,28.56
2018-07-22T13:51:40.029Z,28.76
2018-07-22T13:54:47.234Z,28.53
2018-07-22T13:57:52.558Z,28.53
2018-07-22T14:00:56.857Z,28.75
2018-07-22T14:04:02.441Z,29.18
2018-07-22T14:07:13.663Z,29.00
2018-07-22T14:10:19.872Z,29.03
2018-07-22T14:13:24.162Z,29.13
2018-07-22T14:16:34.555Z,29.13
2018-07-22T14:19:41.079Z,29.33
2018-07-22T14:22:44.697Z,29.21
2018-07-22T14:25:50.584Z,28.96
2018-07-22T14:28:54.150Z,29.19
2018-07-22T14:31:57.697Z,29.43
2018-07-22T14:35:01.211Z,29.47
2018-07-22T14:38:05.825Z,29.37
2018-07-22T14:41:09.633Z,29.05
2018-07-22T14:44:13.134Z,29.08
2018-07-22T14:47:17.187Z,29.00
2018-07-22T14:50:20.856Z,28.92
2018-07-22T14:53:26.651Z,28.69
2018-07-22T14:56:30.337Z,28.71
2018-07-22T14:59:34.646Z,28.84
2018-07-22T15:02:38.349Z,28.53
2018-07-22T15:05:42.975Z,28.57
2018-07-22T15:08:46.818Z,28.52
2018-07-22T15:11:50.512Z,28.30
2018-07-22T15:14:54.053Z,28.24
2018-07-22T15:17:58.214Z,28.30
2018-07-22T15:21:03.228Z,28.38
2018-07-22T15:24:07.204Z,28.41
2018-07-22T15:27:10.684Z,28.60
2018-07-22T15:30:15.525Z,28.66
2018-07-22T15:33:19.935Z,28.45
2018-07-22T15:36:23.505Z,28.23
2018-07-22T15:39:27.769Z,28.39
2018-07-22T15:42:32.701Z,27.91
2018-07-22T15:45:37.429Z,27.99
2018-07-22T15:48:42.629Z,27.97
2018-07-22T15:51:46.644Z,27.62
2018-07-22T15:54:50.397Z,27.85
2018-07-22T15:57:54.002Z,27.85
2018-07-22T16:00:59.296Z,27.73
2018-07-22T16:04:05.383Z,27.71
2018-07-22T16:07:20.091Z,27.57
2018-07-22T16:10:29.721Z,27.49
2018-07-22T16:13:33.429Z,27.49
2018-07-22T16:16:44.060Z,27.52
2018-07-22T16:19:47.832Z,27.40
2018-07-22T16:22:51.609Z,27.44
2018-07-22T16:25:55.833Z,27.34
2018-07-22T16:28:59.537Z,27.29
2018-07-22T16:32:09.192Z,27.07
2018-07-22T16:35:13.984Z,27.20
2018-07-22T16:41:42.433Z,27.15
2018-07-22T16:44:46.227Z,27.15
2018-07-22T16:47:51.912Z,27.13
2018-07-22T16:50:57.574Z,27.29
2018-07-22T16:54:02.058Z,27.20
2018-07-22T16:57:05.773Z,27.21
2018-07-22T17:00:09.886Z,27.23
2018-07-22T17:03:14.304Z,27.26
2018-07-22T17:06:19.248Z,27.17
2018-07-22T17:09:22.951Z,27.15
2018-07-22T17:12:26.579Z,27.07
2018-07-22T17:15:30.876Z,26.91
2018-07-22T17:18:36.883Z,26.75
2018-07-22T17:21:41.583Z,26.69
2018-07-22T17:24:48.665Z,26.59
2018-07-22T17:27:52.362Z,26.54
2018-07-22T17:30:57.093Z,26.52
2018-07-22T17:34:01.441Z,26.43
2018-07-22T17:37:13.831Z,26.32
2018-07-22T17:40:17.400Z,26.30
2018-07-22T17:43:23.403Z,26.35
2018-07-22T17:46:28.224Z,26.41
2018-07-22T17:49:41.978Z,26.38
2018-07-22T17:53:07.180Z,26.29
2018-07-22T17:56:16.618Z,26.30
2018-07-22T17:59:20.223Z,26.25
2018-07-22T18:02:24.755Z,26.24
2018-07-22T18:05:29.792Z,26.17
2018-07-22T18:08:35.041Z,26.20
2018-07-22T18:11:41.114Z,26.18
2018-07-22T18:14:55.154Z,26.17
2018-07-22T18:17:58.851Z,26.11
2018-07-22T18:21:04.858Z,26.07
2018-07-22T18:24:27.391Z,26.04
2018-07-22T18:44:11.406Z,25.79
2018-07-22T19:03:55.239Z,25.63
2018-07-22T19:20:31.174Z,25.39
2018-07-22T19:23:39.460Z,25.30
2018-07-22T19:26:47.641Z,25.17
2018-07-22T19:29:53.855Z,25.15
2018-07-22T19:36:14.417Z,24.93
2018-07-22T19:39:20.068Z,24.87
2018-07-22T19:42:25.535Z,24.84
2018-07-22T19:45:43.359Z,24.86
2018-07-22T19:48:48.876Z,24.80
2018-07-22T19:51:55.449Z,24.83
2018-07-22T19:55:00.151Z,24.60
2018-07-22T19:58:06.287Z,24.37
2018-07-22T20:01:24.662Z,24.49
2018-07-22T20:04:34.005Z,24.46
2018-07-22T20:07:48.786Z,24.21
2018-07-22T20:10:54.740Z,24.43
2018-07-22T20:13:59.420Z,24.44
2018-07-22T20:17:04.612Z,24.35
2018-07-22T20:20:11.084Z,24.41
2018-07-22T20:23:16.413Z,24.32
2018-07-22T20:26:31.974Z,24.32
2018-07-22T21:36:01.508Z,23.68
2018-07-22T21:39:08.472Z,23.59
2018-07-22T21:42:14.273Z,23.74
2018-07-22T21:45:20.898Z,23.83
2018-07-22T21:48:25.815Z,23.65
2018-07-22T21:51:36.039Z,23.58
2018-07-22T21:54:39.947Z,23.59
2018-07-22T21:57:44.387Z,23.56
2018-07-22T22:00:49.817Z,23.66
2018-07-22T22:03:53.676Z,23.58
2018-07-22T22:07:02.927Z,23.45
2018-07-22T22:10:07.988Z,23.45
2018-07-22T22:13:11.838Z,23.42
2018-07-22T22:16:15.828Z,23.38
2018-07-22T22:19:20.457Z,23.29
2018-07-22T22:22:24.375Z,23.18
2018-07-22T22:25:28.843Z,23.01
2018-07-22T22:28:32.692Z,23.03
2018-07-22T22:31:36.461Z,22.98
2018-07-22T22:34:40.355Z,23.01
2018-07-22T22:37:44.751Z,22.99
2018-07-22T22:40:49.701Z,22.99
2018-07-22T22:43:55.631Z,22.99
2018-07-22T22:47:00.868Z,22.85
2018-07-22T22:50:05.203Z,22.86
2018-07-22T22:53:09.972Z,22.75
2018-07-22T22:56:14.730Z,22.73
2018-07-22T22:59:23.488Z,22.72
2018-07-22T23:02:32.604Z,22.52
2018-07-22T23:05:37.589Z,22.20
2018-07-22T23:08:42.381Z,22.46
2018-07-22T23:11:47.228Z,22.45
2018-07-22T23:14:51.399Z,22.53
2018-07-22T23:17:56.062Z,22.23
2018-07-22T23:21:00.897Z,22.36
2018-07-22T23:24:05.773Z,22.38
2018-07-22T23:27:11.596Z,22.37
2018-07-22T23:30:15.924Z,22.41
2018-07-22T23:33:20.018Z,22.00
2018-07-22T23:36:24.457Z,22.04
2018-07-22T23:39:29.152Z,21.72
2018-07-22T23:42:32.884Z,21.90
2018-07-22T23:45:36.700Z,22.08
2018-07-22T23:48:42.780Z,22.19
2018-07-22T23:51:46.786Z,22.05
2018-07-22T23:54:50.914Z,22.14
2018-07-22T23:57:55.753Z,22.16
